Overseas Boston — WJBU — position and weather

sailwx.info

Track history (hours):
 
Tides and Currents Weather Stations Pressure Air Temp Water Temp Dewpoint Dewpoint Depression Visibility Wind Speed Wind Dir Waves Ship Positions

Overseas Boston

Owner: ASC Leasing VI, Inc., Philadelphia, PA. More information available from US FCC via Universal Licensing System and Coast Guard Vessel Documentation Center.

Last reported at 2017-May-22 15:30 UTC. Time now 2017-May-22 15:38 UTC.
Position N 33°37' W 120°50'.

Length 183 m; draft 10.8 m.

Type: Tanker. MMSI: 338221000.

Date/timePositionNaut miles runAvg speedWind from/ knotsBaromVisibWave heightAir tempDewpointWater temp
2017-May-22 15:30N 33°37' W 120°50'713.4
2017-May-22 15:00N 33°38' W 120°57'1515.0
2017-May-22 14:01N 33°48' W 121°11'915.0
2017-May-22 13:25N 33°54' W 121°19'714.8
2017-May-22 12:58N 33°58' W 121°25'715.0
2017-May-22 12:29N 34°03' W 121°32'715.1
2017-May-22 12:00N 34°08' W 121°38'715.0
2017-May-22 11:31N 34°13' W 121°45'815.0
2017-May-22 11:00N 34°18' W 121°52'815.3
2017-May-22 10:30N 34°23' W 121°59'715.1
2017-May-22 10:01N 34°27' W 122°06'815.2
2017-May-22 09:30N 34°33' W 122°13'815.5
2017-May-22 08:59N 34°38' W 122°20'815.7
2017-May-22 08:30N 34°43' W 122°27'815.6
2017-May-22 08:01N 34°48' W 122°34'714.8
2017-May-22 07:30N 34°53' W 122°41'714.5
2017-May-22 07:00N 34°57' W 122°48'714.4
2017-May-22 06:30N 35°02' W 122°55'1714.6
2017-May-22 05:19N 35°13' W 123°11'514.5
2017-May-22 05:00N 35°16' W 123°15'814.5
2017-May-22 04:29N 35°22' W 123°21'915.0
2017-May-22 03:52N 35°30' W 123°27'1515.1
2017-May-22 02:53N 35°42' W 123°37'615.2
2017-May-22 02:31N 35°47' W 123°41'1615.3
2017-May-22 01:30N 36°00' W 123°51'815.6
2017-May-22 00:58N 36°07' W 123°56'3515.5
2017-May-21 22:43N 36°37' W 124°19'415.2
2017-May-21 22:28N 36°40' W 124°21'815.6
2017-May-21 21:57N 36°47' W 124°27'715.7
2017-May-21 21:30N 36°53' W 124°31'815.4
2017-May-21 21:01N 36°60' W 124°36'815.8
2017-May-21 20:30N 37°06' W 124°41'815.8
2017-May-21 20:01N 37°13' W 124°47'816.0
2017-May-21 19:31N 37°20' W 124°52'815.8
2017-May-21 19:00N 37°27' W 124°57'1115.7
2017-May-21 18:18N 37°36' W 125°05'415.1
2017-May-21 18:01N 37°40' W 125°07'1015.4
2017-May-21 17:21N 37°48' W 125°14'514.8
2017-May-21 17:00N 37°53' W 125°18'714.6
2017-May-21 16:31N 37°59' W 125°22'714.4
2017-May-21 16:01N 38°05' W 125°27'714.3
2017-May-21 15:31N 38°11' W 125°32'714.2
2017-May-21 15:01N 38°17' W 125°37'1414.1
2017-May-21 13:59N 38°29' W 125°46'713.9
2017-May-21 13:30N 38°35' W 125°51'713.9
2017-May-21 13:00N 38°41' W 125°55'814.0
2017-May-21 12:28N 38°47' W 126°01'913.9
2017-May-21 11:48N 38°55' W 126°07'414.2
2017-May-21 11:30N 38°59' W 126°10'714.4
2017-May-21 11:00N 39°05' W 126°15'814.6
2017-May-21 10:29N 39°11' W 126°20'814.5
2017-May-21 09:54N 39°19' W 126°25'614.6
2017-May-21 09:30N 39°24' W 126°29'1414.4
2017-May-21 08:32N 39°36' W 126°39'414.4
2017-May-21 08:16N 39°39' W 126°42'1614.5
2017-May-21 07:10N 39°52' W 126°53'214.7
2017-May-21 07:00N 39°54' W 126°54'714.5
2017-May-21 06:30N 40°00' W 126°59'814.6
2017-May-21 05:59N 40°07' W 127°04'714.4
2017-May-21 05:29N 40°13' W 127°09'1614.5
2017-May-21 04:23N 40°27' W 127°20'614.8
2017-May-21 04:00N 40°32' W 127°24'2414.4
2017-May-21 02:21N 40°52' W 127°41'43214.7
2017-May-19 21:00N 47°00' W 132°54'   250 / 131024.010.8 12.010.2
Track history (hours):
 
Tides and Currents Weather Stations Pressure Air Temp Water Temp Dewpoint Dewpoint Depression Visibility Wind Speed Wind Dir Waves Ship Positions

Overseas Boston

Owner: ASC Leasing VI, Inc., Philadelphia, PA. More information available from US FCC via Universal Licensing System and Coast Guard Vessel Documentation Center.

Last reported at 2017-May-22 15:30 UTC. Time now 2017-May-22 15:38 UTC.
Position N 33°37' W 120°50'.

Length 183 m; draft 10.8 m.

Type: Tanker. MMSI: 338221000.

Date/timePositionNaut miles runAvg speedWind from/ knotsBaromVisibWave heightAir tempDewpointWater temp
2017-May-22 15:30N 33°37' W 120°50'713.4
2017-May-22 15:00N 33°38' W 120°57'1515.0
2017-May-22 14:01N 33°48' W 121°11'915.0
2017-May-22 13:25N 33°54' W 121°19'714.8
2017-May-22 12:58N 33°58' W 121°25'715.0
2017-May-22 12:29N 34°03' W 121°32'715.1
2017-May-22 12:00N 34°08' W 121°38'715.0
2017-May-22 11:31N 34°13' W 121°45'815.0
2017-May-22 11:00N 34°18' W 121°52'815.3
2017-May-22 10:30N 34°23' W 121°59'715.1
2017-May-22 10:01N 34°27' W 122°06'815.2
2017-May-22 09:30N 34°33' W 122°13'815.5
2017-May-22 08:59N 34°38' W 122°20'815.7
2017-May-22 08:30N 34°43' W 122°27'815.6
2017-May-22 08:01N 34°48' W 122°34'714.8
2017-May-22 07:30N 34°53' W 122°41'714.5
2017-May-22 07:00N 34°57' W 122°48'714.4
2017-May-22 06:30N 35°02' W 122°55'1714.6
2017-May-22 05:19N 35°13' W 123°11'514.5
2017-May-22 05:00N 35°16' W 123°15'814.5
2017-May-22 04:29N 35°22' W 123°21'915.0
2017-May-22 03:52N 35°30' W 123°27'1515.1
2017-May-22 02:53N 35°42' W 123°37'615.2
2017-May-22 02:31N 35°47' W 123°41'1615.3
2017-May-22 01:30N 36°00' W 123°51'815.6
2017-May-22 00:58N 36°07' W 123°56'3515.5
2017-May-21 22:43N 36°37' W 124°19'415.2
2017-May-21 22:28N 36°40' W 124°21'815.6
2017-May-21 21:57N 36°47' W 124°27'715.7
2017-May-21 21:30N 36°53' W 124°31'815.4
2017-May-21 21:01N 36°60' W 124°36'815.8
2017-May-21 20:30N 37°06' W 124°41'815.8
2017-May-21 20:01N 37°13' W 124°47'816.0
2017-May-21 19:31N 37°20' W 124°52'815.8
2017-May-21 19:00N 37°27' W 124°57'1115.7
2017-May-21 18:18N 37°36' W 125°05'415.1
2017-May-21 18:01N 37°40' W 125°07'1015.4
2017-May-21 17:21N 37°48' W 125°14'514.8
2017-May-21 17:00N 37°53' W 125°18'714.6
2017-May-21 16:31N 37°59' W 125°22'714.4
2017-May-21 16:01N 38°05' W 125°27'714.3
2017-May-21 15:31N 38°11' W 125°32'714.2
2017-May-21 15:01N 38°17' W 125°37'1414.1
2017-May-21 13:59N 38°29' W 125°46'713.9
2017-May-21 13:30N 38°35' W 125°51'713.9
2017-May-21 13:00N 38°41' W 125°55'814.0
2017-May-21 12:28N 38°47' W 126°01'913.9
2017-May-21 11:48N 38°55' W 126°07'414.2
2017-May-21 11:30N 38°59' W 126°10'714.4
2017-May-21 11:00N 39°05' W 126°15'814.6
2017-May-21 10:29N 39°11' W 126°20'814.5
2017-May-21 09:54N 39°19' W 126°25'614.6
2017-May-21 09:30N 39°24' W 126°29'1414.4
2017-May-21 08:32N 39°36' W 126°39'414.4
2017-May-21 08:16N 39°39' W 126°42'1614.5
2017-May-21 07:10N 39°52' W 126°53'214.7
2017-May-21 07:00N 39°54' W 126°54'714.5
2017-May-21 06:30N 40°00' W 126°59'814.6
2017-May-21 05:59N 40°07' W 127°04'714.4
2017-May-21 05:29N 40°13' W 127°09'1614.5
2017-May-21 04:23N 40°27' W 127°20'614.8
2017-May-21 04:00N 40°32' W 127°24'2414.4
2017-May-21 02:21N 40°52' W 127°41'43214.7
2017-May-19 21:00N 47°00' W 132°54'   250 / 131024.010.8 12.010.2

Dump ship's entire track history